createdAt,value
2022-08-23T00:02:12.852Z,18.30
2022-08-23T00:05:07.933Z,18.30
2022-08-23T00:07:44.991Z,18.30
2022-08-23T00:10:16.618Z,18.30
2022-08-23T00:12:44.270Z,18.30
2022-08-23T00:15:11.941Z,18.30
2022-08-23T00:17:38.857Z,18.30
2022-08-23T00:20:07.370Z,18.30
2022-08-23T00:22:34.027Z,18.30
2022-08-23T00:25:00.556Z,18.40
2022-08-23T00:27:26.800Z,18.40
2022-08-23T00:29:57.311Z,18.40
2022-08-23T00:32:34.211Z,18.30
2022-08-23T00:35:00.976Z,18.40
2022-08-23T00:37:31.867Z,18.40
2022-08-23T00:39:59.233Z,18.40
2022-08-23T00:43:08.226Z,18.40
2022-08-23T00:46:29.536Z,18.40
2022-08-23T00:48:55.813Z,18.40
2022-08-23T00:51:29.051Z,18.40
2022-08-23T00:53:56.991Z,18.40
2022-08-23T00:56:25.098Z,18.40
2022-08-23T00:58:52.667Z,18.40
2022-08-23T01:01:18.939Z,18.40
2022-08-23T01:03:50.474Z,18.30
2022-08-23T01:06:55.158Z,18.30
2022-08-23T01:09:21.574Z,18.30
2022-08-23T01:12:07.342Z,18.30
2022-08-23T01:14:40.199Z,18.30
2022-08-23T01:17:28.993Z,18.30
2022-08-23T01:20:17.225Z,18.20
2022-08-23T01:22:59.509Z,18.20
2022-08-23T01:25:27.658Z,18.20
2022-08-23T01:27:53.914Z,18.20
2022-08-23T01:30:22.587Z,18.20
2022-08-23T01:32:57.414Z,18.20
2022-08-23T01:35:38.762Z,18.20
2022-08-23T01:38:06.321Z,18.20
2022-08-23T01:40:33.566Z,18.20
2022-08-23T01:42:59.965Z,18.20
2022-08-23T01:45:27.024Z,18.20
2022-08-23T01:47:53.236Z,18.20
2022-08-23T01:50:19.981Z,18.20
2022-08-23T01:52:46.672Z,18.20
2022-08-23T01:55:13.797Z,18.20
2022-08-23T01:57:40.855Z,18.20
2022-08-23T02:00:08.874Z,18.20
2022-08-23T02:02:35.143Z,18.20
2022-08-23T02:05:01.919Z,18.20
2022-08-23T02:07:28.737Z,18.10
2022-08-23T02:09:55.688Z,18.10
2022-08-23T02:12:21.922Z,18.10
2022-08-23T02:14:48.364Z,18.10
2022-08-23T02:17:15.907Z,18.10
2022-08-23T02:19:43.883Z,18.00
2022-08-23T02:22:10.210Z,18.00
2022-08-23T02:24:40.934Z,18.00
2022-08-23T02:27:07.278Z,18.00
2022-08-23T02:29:34.867Z,18.00
2022-08-23T02:32:06.192Z,18.00
2022-08-23T02:34:32.955Z,18.00
2022-08-23T02:36:59.256Z,18.00
2022-08-23T02:39:25.611Z,17.90
2022-08-23T02:41:51.843Z,17.90
2022-08-23T02:44:19.380Z,17.90
2022-08-23T02:46:46.561Z,17.90
2022-08-23T02:49:13.092Z,17.90
2022-08-23T02:51:39.403Z,17.90
2022-08-23T02:54:05.966Z,17.90
2022-08-23T02:56:33.327Z,17.90
2022-08-23T02:58:59.867Z,17.90
2022-08-23T03:01:29.492Z,17.80
2022-08-23T03:03:56.124Z,17.80
2022-08-23T03:06:25.644Z,17.80
2022-08-23T03:08:53.979Z,17.80
2022-08-23T03:11:21.276Z,17.80
2022-08-23T03:13:48.403Z,17.80
2022-08-23T03:16:15.497Z,17.70
2022-08-23T03:18:41.746Z,17.70
2022-08-23T03:21:10.270Z,17.70
2022-08-23T03:23:37.379Z,17.70
2022-08-23T03:26:04.794Z,17.70
2022-08-23T03:28:32.353Z,17.70
2022-08-23T03:30:59.009Z,17.70
2022-08-23T03:33:25.230Z,17.70
2022-08-23T03:35:51.956Z,17.70
2022-08-23T03:38:19.467Z,17.70
2022-08-23T03:40:45.840Z,17.60
2022-08-23T03:43:14.523Z,17.60
2022-08-23T03:45:41.264Z,17.60
2022-08-23T03:48:07.901Z,17.60
2022-08-23T03:50:35.569Z,17.60
2022-08-23T03:53:01.798Z,17.60
2022-08-23T03:55:28.013Z,17.60
2022-08-23T03:57:54.234Z,17.60
2022-08-23T04:00:20.773Z,17.60
2022-08-23T04:02:47.717Z,17.60
2022-08-23T04:05:13.965Z,17.60
2022-08-23T04:07:40.268Z,17.60
2022-08-23T04:10:09.032Z,17.60
2022-08-23T04:12:36.352Z,17.60
2022-08-23T04:15:03.476Z,17.60
2022-08-23T04:17:32.429Z,17.60
2022-08-23T04:19:59.151Z,17.60
2022-08-23T04:22:25.361Z,17.60
2022-08-23T04:24:51.589Z,17.60
2022-08-23T04:27:17.807Z,17.60
2022-08-23T04:29:44.017Z,17.70
2022-08-23T04:32:11.646Z,17.60
2022-08-23T04:34:42.229Z,17.60
2022-08-23T04:37:12.261Z,17.60
2022-08-23T04:39:57.215Z,17.70
2022-08-23T04:42:24.388Z,17.60
2022-08-23T04:44:50.635Z,17.60
2022-08-23T04:47:17.358Z,17.60
2022-08-23T04:49:43.628Z,17.60
2022-08-23T04:52:10.289Z,17.70
2022-08-23T04:54:37.850Z,17.70
2022-08-23T04:57:04.130Z,17.70
2022-08-23T04:59:30.443Z,17.70
2022-08-23T05:01:57.171Z,17.70
2022-08-23T05:04:23.383Z,17.80
2022-08-23T05:06:51.925Z,17.80
2022-08-23T05:09:20.717Z,17.80
2022-08-23T05:11:47.437Z,17.80
2022-08-23T05:14:13.698Z,17.80
2022-08-23T05:16:40.245Z,17.80
2022-08-23T05:19:06.485Z,17.80
2022-08-23T05:21:32.742Z,17.80
2022-08-23T05:24:00.528Z,17.70
2022-08-23T05:26:30.318Z,17.80
2022-08-23T05:28:56.531Z,17.80
2022-08-23T05:31:24.404Z,17.80
2022-08-23T05:33:51.078Z,17.80
2022-08-23T05:36:18.228Z,17.80
2022-08-23T05:38:46.624Z,17.90
2022-08-23T05:41:13.237Z,17.80
2022-08-23T05:43:39.545Z,17.80
2022-08-23T05:46:14.621Z,17.80
2022-08-23T05:48:42.892Z,17.90
2022-08-23T05:51:14.561Z,17.90
2022-08-23T05:53:42.461Z,17.90
2022-08-23T05:56:34.903Z,18.00
2022-08-23T05:59:04.587Z,18.10
2022-08-23T06:01:30.889Z,18.10
2022-08-23T06:04:05.533Z,18.20
2022-08-23T06:06:37.035Z,18.30
2022-08-23T06:09:05.279Z,18.40
2022-08-23T06:11:32.701Z,18.30
2022-08-23T06:14:02.112Z,18.30
2022-08-23T06:16:31.000Z,18.30
2022-08-23T06:18:57.393Z,18.40
2022-08-23T06:21:24.378Z,18.30
2022-08-23T06:23:50.684Z,18.30
2022-08-23T06:26:19.687Z,18.30
2022-08-23T06:28:50.390Z,18.40
2022-08-23T06:31:37.878Z,18.40
2022-08-23T06:34:04.675Z,18.40
2022-08-23T06:36:31.828Z,18.50
2022-08-23T06:38:58.984Z,18.50
2022-08-23T06:41:26.048Z,18.60
2022-08-23T06:43:52.449Z,18.50
2022-08-23T06:46:21.476Z,18.50
2022-08-23T06:48:50.406Z,19.60
2022-08-23T06:51:27.287Z,19.00
2022-08-23T06:53:54.892Z,19.00
2022-08-23T06:56:22.617Z,19.10
2022-08-23T06:58:48.883Z,19.20
2022-08-23T07:01:44.192Z,19.30
2022-08-23T07:04:13.647Z,19.10
2022-08-23T07:06:40.410Z,19.20
2022-08-23T07:09:06.967Z,19.20
2022-08-23T07:11:33.555Z,19.40
2022-08-23T07:14:00.583Z,19.10
2022-08-23T07:16:36.246Z,19.00
2022-08-23T07:19:03.857Z,19.10
2022-08-23T07:21:30.369Z,19.00
2022-08-23T07:23:57.108Z,18.70
2022-08-23T07:26:25.095Z,18.80
2022-08-23T07:28:51.379Z,18.90
2022-08-23T07:31:37.899Z,19.00
2022-08-23T07:34:04.730Z,19.00
2022-08-23T07:36:31.617Z,19.10
2022-08-23T07:38:58.158Z,19.10
2022-08-23T07:41:27.260Z,19.10
2022-08-23T07:43:54.644Z,18.90
2022-08-23T07:46:21.448Z,18.90
2022-08-23T07:48:54.355Z,18.80
2022-08-23T07:51:22.266Z,18.90
2022-08-23T07:53:49.362Z,18.90
2022-08-23T07:56:17.094Z,19.10
2022-08-23T07:58:43.580Z,19.60
2022-08-23T08:01:18.730Z,19.70
2022-08-23T08:03:47.536Z,20.00
2022-08-23T08:06:34.493Z,20.10
2022-08-23T08:09:00.804Z,20.00
2022-08-23T08:11:33.727Z,20.00
2022-08-23T08:14:03.835Z,19.80
2022-08-23T08:16:33.701Z,19.90
2022-08-23T08:19:01.199Z,19.60
2022-08-23T08:21:27.796Z,19.60
2022-08-23T08:23:54.817Z,20.00
2022-08-23T08:26:22.533Z,20.60
2022-08-23T08:28:49.263Z,21.10
2022-08-23T08:31:15.971Z,21.60
2022-08-23T08:33:43.236Z,21.80
2022-08-23T08:36:27.470Z,21.80
2022-08-23T08:38:58.329Z,22.30
2022-08-23T08:44:31.099Z,22.60
2022-08-23T08:46:57.441Z,21.90
2022-08-23T08:49:53.156Z,21.60
2022-08-23T08:52:25.264Z,21.50
2022-08-23T08:55:06.637Z,21.70
2022-08-23T08:57:40.238Z,21.70
2022-08-23T09:00:13.442Z,21.40
2022-08-23T09:02:39.801Z,21.40
2022-08-23T09:05:32.129Z,21.40
2022-08-23T09:08:46.039Z,21.40
2022-08-23T09:12:49.274Z,21.40
2022-08-23T09:15:24.550Z,21.50
2022-08-23T09:17:56.668Z,21.40
2022-08-23T09:20:28.014Z,21.10
2022-08-23T09:23:36.314Z,21.30
2022-08-23T09:26:06.555Z,21.40
2022-08-23T09:28:36.125Z,21.10
2022-08-23T09:31:02.849Z,21.10
2022-08-23T09:33:45.661Z,21.10
2022-08-23T09:36:22.200Z,21.20
2022-08-23T09:38:57.363Z,20.90
2022-08-23T09:41:27.143Z,20.70
2022-08-23T09:43:55.276Z,20.60
2022-08-23T09:46:28.394Z,20.70
2022-08-23T09:48:57.530Z,20.60
2022-08-23T09:51:28.774Z,20.40
2022-08-23T09:54:38.476Z,20.40
2022-08-23T09:57:08.776Z,20.60
2022-08-23T09:59:51.307Z,20.90
2022-08-23T10:02:30.103Z,20.90
2022-08-23T10:05:19.374Z,20.80
2022-08-23T10:08:02.076Z,21.80
2022-08-23T10:10:54.998Z,21.20
2022-08-23T10:13:22.839Z,21.40
2022-08-23T10:16:07.112Z,21.50
2022-08-23T10:20:37.381Z,21.20
2022-08-23T10:23:25.284Z,20.90
2022-08-23T10:25:59.005Z,20.70
2022-08-23T10:29:08.477Z,22.50
2022-08-23T10:31:47.407Z,20.80
2022-08-23T10:34:31.015Z,20.80
2022-08-23T10:37:41.735Z,21.60
2022-08-23T10:40:46.559Z,21.90
2022-08-23T10:48:37.795Z,21.60
2022-08-23T10:51:31.234Z,21.10
2022-08-23T10:54:17.944Z,21.10
2022-08-23T10:56:49.540Z,21.20
2022-08-23T10:59:20.273Z,21.20
2022-08-23T11:03:37.109Z,21.30
2022-08-23T11:08:59.690Z,21.50
2022-08-23T11:11:49.783Z,21.60
2022-08-23T11:15:48.485Z,21.90
2022-08-23T11:18:38.060Z,21.70
2022-08-23T11:22:09.518Z,21.90
2022-08-23T11:24:53.946Z,22.10
2022-08-23T11:27:35.326Z,22.20
2022-08-23T11:32:13.165Z,22.00
2022-08-23T11:35:08.515Z,22.30
2022-08-23T11:38:01.627Z,22.50
2022-08-23T11:41:42.405Z,23.00
2022-08-23T11:44:50.676Z,23.10
2022-08-23T11:47:38.178Z,23.10
2022-08-23T11:50:16.165Z,22.50
2022-08-23T11:53:15.254Z,22.70
2022-08-23T11:57:29.302Z,22.80
2022-08-23T12:00:07.873Z,22.50
2022-08-23T12:03:33.769Z,22.30
2022-08-23T12:06:07.585Z,22.00
2022-08-23T12:08:55.052Z,22.20
2022-08-23T12:11:23.710Z,22.10
2022-08-23T12:14:01.759Z,22.20
2022-08-23T12:16:32.117Z,22.20
2022-08-23T12:19:01.431Z,22.40
2022-08-23T12:21:46.437Z,22.50
2022-08-23T12:25:09.079Z,22.60
2022-08-23T12:27:47.215Z,22.20
2022-08-23T12:30:55.304Z,22.10
2022-08-23T12:33:40.735Z,22.30
2022-08-23T12:37:56.094Z,22.20
2022-08-23T12:40:42.776Z,22.00
2022-08-23T12:43:21.218Z,22.00
2022-08-23T12:46:00.858Z,22.00
2022-08-23T12:48:30.067Z,22.10
2022-08-23T12:51:01.471Z,22.30
2022-08-23T12:53:37.256Z,22.20
2022-08-23T12:56:19.531Z,22.00
2022-08-23T12:58:53.290Z,22.10
2022-08-23T13:01:30.170Z,22.30
2022-08-23T13:04:08.127Z,22.30
2022-08-23T13:06:58.915Z,22.40
2022-08-23T13:09:31.654Z,22.50
2022-08-23T13:11:58.590Z,22.60
2022-08-23T13:14:45.846Z,22.60
2022-08-23T13:18:25.959Z,22.60
2022-08-23T13:23:48.451Z,22.40
2022-08-23T13:28:23.022Z,22.30
2022-08-23T13:33:26.835Z,22.10
2022-08-23T13:36:15.555Z,21.80
2022-08-23T13:38:42.787Z,21.70
2022-08-23T13:41:13.521Z,21.70
2022-08-23T13:43:50.620Z,21.60
2022-08-23T13:46:26.283Z,21.50
2022-08-23T13:49:11.289Z,21.50
2022-08-23T13:54:58.297Z,21.30
2022-08-23T13:57:27.369Z,21.40
2022-08-23T13:59:58.261Z,21.40
2022-08-23T14:02:24.687Z,21.40
2022-08-23T14:04:51.022Z,21.40
2022-08-23T14:07:17.563Z,21.40
2022-08-23T14:09:43.988Z,21.40
2022-08-23T14:12:21.289Z,21.40
2022-08-23T14:14:48.281Z,21.40
2022-08-23T14:17:15.768Z,21.40
2022-08-23T14:22:43.967Z,21.40
2022-08-23T14:25:11.201Z,21.40
2022-08-23T14:27:38.708Z,21.50
2022-08-23T14:30:07.020Z,21.50
2022-08-23T14:32:33.622Z,21.50
2022-08-23T14:35:00.328Z,21.40
2022-08-23T14:40:22.906Z,21.20
2022-08-23T14:42:49.239Z,21.30
2022-08-23T14:45:16.879Z,21.30
2022-08-23T14:47:43.259Z,21.40
2022-08-23T14:50:11.859Z,21.30
2022-08-23T14:52:41.690Z,21.30
2022-08-23T14:55:08.152Z,21.40
2022-08-23T14:57:34.410Z,21.30
2022-08-23T15:00:00.755Z,21.30
2022-08-23T15:02:28.523Z,21.30
2022-08-23T15:04:55.148Z,21.40
2022-08-23T15:07:22.301Z,21.40
2022-08-23T15:09:50.106Z,21.30
2022-08-23T15:15:17.130Z,21.40
2022-08-23T15:17:57.473Z,21.50
2022-08-23T15:20:29.426Z,21.50
2022-08-23T15:22:56.228Z,21.40
2022-08-23T15:25:28.757Z,21.40
2022-08-23T15:27:55.252Z,21.50
2022-08-23T15:30:22.647Z,21.40
2022-08-23T15:32:52.304Z,21.40
2022-08-23T15:35:23.272Z,21.40
2022-08-23T15:37:49.617Z,21.40
2022-08-23T15:40:16.925Z,21.40
2022-08-23T15:42:43.543Z,21.40
2022-08-23T15:45:11.222Z,21.40
2022-08-23T15:47:46.347Z,21.40
2022-08-23T15:50:12.975Z,21.40
2022-08-23T15:52:39.261Z,21.30
2022-08-23T15:55:06.772Z,21.30
2022-08-23T15:57:43.864Z,21.30
2022-08-23T16:00:11.845Z,21.30
2022-08-23T16:03:04.458Z,21.30
2022-08-23T16:05:43.390Z,21.20
2022-08-23T16:08:24.990Z,21.20
2022-08-23T16:10:52.354Z,21.10
2022-08-23T16:13:19.459Z,21.10
2022-08-23T16:15:46.067Z,21.10
2022-08-23T16:18:12.651Z,21.10
2022-08-23T16:20:40.459Z,21.10
2022-08-23T16:23:06.826Z,21.00
2022-08-23T16:25:33.952Z,21.00
2022-08-23T16:28:00.654Z,21.00
2022-08-23T16:30:28.696Z,20.90
2022-08-23T16:32:56.317Z,20.90
2022-08-23T16:35:23.361Z,20.90
2022-08-23T16:37:49.865Z,20.80
2022-08-23T16:40:16.475Z,20.80
2022-08-23T16:42:52.665Z,20.80
2022-08-23T16:45:25.915Z,20.80
2022-08-23T16:47:53.155Z,21.40
2022-08-23T16:50:20.136Z,20.80
2022-08-23T16:52:46.428Z,20.80
2022-08-23T16:55:12.892Z,20.70
2022-08-23T16:57:39.925Z,20.70
2022-08-23T17:00:08.499Z,20.70
2022-08-23T17:02:36.244Z,20.70
2022-08-23T17:05:05.377Z,20.70
2022-08-23T17:07:32.719Z,20.70
2022-08-23T17:09:59.823Z,20.60
2022-08-23T17:12:26.413Z,20.60
2022-08-23T17:14:54.233Z,20.60
2022-08-23T17:17:20.587Z,20.50
2022-08-23T17:19:47.691Z,20.50
2022-08-23T17:22:14.988Z,20.50
2022-08-23T17:24:41.460Z,20.50
2022-08-23T17:27:07.928Z,20.50
2022-08-23T17:29:37.380Z,20.50
2022-08-23T17:32:04.492Z,20.40
2022-08-23T17:34:31.188Z,20.40
2022-08-23T17:36:57.612Z,20.40
2022-08-23T17:39:27.310Z,20.30
2022-08-23T17:41:53.807Z,20.30
2022-08-23T17:44:20.184Z,20.30
2022-08-23T17:46:46.988Z,20.30
2022-08-23T17:49:16.718Z,20.20
2022-08-23T17:51:43.980Z,20.20
2022-08-23T17:54:16.204Z,20.20
2022-08-23T17:56:43.114Z,20.20
2022-08-23T17:59:21.575Z,20.20
2022-08-23T18:01:48.042Z,20.10
2022-08-23T18:04:16.885Z,20.10
2022-08-23T18:06:44.005Z,20.10
2022-08-23T18:09:11.218Z,20.10
2022-08-23T18:11:38.895Z,20.00
2022-08-23T18:14:06.177Z,20.00
2022-08-23T18:16:35.524Z,20.00
2022-08-23T18:19:03.145Z,20.00
2022-08-23T18:21:30.942Z,19.90
2022-08-23T18:23:58.410Z,19.90
2022-08-23T18:26:44.799Z,19.90
2022-08-23T18:29:13.181Z,19.90
2022-08-23T18:31:41.074Z,19.90
2022-08-23T18:34:07.540Z,19.90
2022-08-23T18:36:34.839Z,19.80
2022-08-23T18:39:01.241Z,19.80
2022-08-23T18:41:30.443Z,19.80
2022-08-23T18:43:58.049Z,19.70
2022-08-23T18:49:25.907Z,19.70
2022-08-23T18:54:39.654Z,19.80
2022-08-23T19:00:13.040Z,19.80
2022-08-23T19:02:39.816Z,19.80
2022-08-23T19:05:08.061Z,19.80
2022-08-23T19:07:35.553Z,19.90
2022-08-23T19:10:02.264Z,19.80
2022-08-23T19:12:29.503Z,19.80
2022-08-23T19:15:00.174Z,19.90
2022-08-23T19:17:27.407Z,19.90
2022-08-23T19:19:53.893Z,19.90
2022-08-23T19:22:20.693Z,19.90
2022-08-23T19:24:47.155Z,19.90
2022-08-23T19:27:14.807Z,19.90
2022-08-23T19:29:42.924Z,19.90
2022-08-23T19:32:12.430Z,19.90
2022-08-23T19:34:39.535Z,19.90
2022-08-23T19:37:10.776Z,20.00
2022-08-23T19:39:47.435Z,20.00
2022-08-23T19:42:14.221Z,20.00
2022-08-23T19:44:40.856Z,20.00
2022-08-23T19:47:07.826Z,19.90
2022-08-23T19:49:39.897Z,20.00
2022-08-23T19:52:07.462Z,19.90
2022-08-23T19:54:34.020Z,19.90
2022-08-23T19:57:01.227Z,19.90
2022-08-23T19:59:36.063Z,19.90
2022-08-23T20:02:02.580Z,19.90
2022-08-23T20:04:30.917Z,19.90
2022-08-23T20:06:57.857Z,19.80
2022-08-23T20:09:26.468Z,19.80
2022-08-23T20:11:54.414Z,19.80
2022-08-23T20:14:22.042Z,19.80
2022-08-23T20:16:49.124Z,19.90
2022-08-23T20:19:15.476Z,19.80
2022-08-23T20:21:43.521Z,19.90
2022-08-23T20:24:10.975Z,19.90
2022-08-23T20:26:49.074Z,19.90
2022-08-23T20:29:17.905Z,19.90
2022-08-23T20:31:50.033Z,19.90
2022-08-23T20:34:16.682Z,19.90
2022-08-23T20:36:42.934Z,19.90
2022-08-23T20:39:09.621Z,19.90
2022-08-23T20:41:37.223Z,19.90
2022-08-23T20:44:04.447Z,19.90
2022-08-23T20:46:30.855Z,19.90
2022-08-23T20:48:57.327Z,19.90
2022-08-23T20:51:24.126Z,19.90
2022-08-23T20:53:50.615Z,19.90
2022-08-23T20:56:17.157Z,19.90
2022-08-23T20:58:43.915Z,19.90
2022-08-23T21:01:11.639Z,19.90
2022-08-23T21:03:38.222Z,18.20
2022-08-23T21:06:15.913Z,20.00
2022-08-23T21:08:48.718Z,20.00
2022-08-23T21:11:15.082Z,20.00
2022-08-23T21:13:43.968Z,20.00
2022-08-23T21:16:12.065Z,20.00
2022-08-23T21:18:38.783Z,20.00
2022-08-23T21:21:05.257Z,20.00
2022-08-23T21:23:32.259Z,20.00
2022-08-23T21:25:59.119Z,20.00
2022-08-23T21:28:26.017Z,20.00
2022-08-23T21:30:52.566Z,20.00
2022-08-23T21:33:21.401Z,20.00
2022-08-23T21:35:48.406Z,20.00
2022-08-23T21:38:14.746Z,20.00
2022-08-23T21:40:41.101Z,20.00
2022-08-23T21:43:07.436Z,20.00
2022-08-23T21:45:33.755Z,20.00
2022-08-23T21:48:01.339Z,20.00
2022-08-23T21:50:28.448Z,20.00
2022-08-23T21:52:56.699Z,20.00
2022-08-23T21:55:24.032Z,20.00
2022-08-23T22:00:44.266Z,20.00
2022-08-23T22:03:10.574Z,20.00
2022-08-23T22:05:41.368Z,20.00
2022-08-23T22:08:08.832Z,20.00
2022-08-23T22:10:37.423Z,20.00
2022-08-23T22:13:05.111Z,20.10
2022-08-23T22:15:32.227Z,20.10
2022-08-23T22:18:00.324Z,20.10
2022-08-23T22:20:27.963Z,20.00
2022-08-23T22:22:54.271Z,20.10
2022-08-23T22:25:20.646Z,20.10
2022-08-23T22:27:46.958Z,20.10
2022-08-23T22:30:14.490Z,20.10
2022-08-23T22:32:41.250Z,20.10
2022-08-23T22:35:10.002Z,20.20
2022-08-23T22:37:37.683Z,20.20
2022-08-23T22:40:05.961Z,20.20
2022-08-23T22:42:35.999Z,20.20
2022-08-23T22:45:02.967Z,20.20
2022-08-23T22:47:29.191Z,20.20
2022-08-23T22:49:55.498Z,20.20
2022-08-23T22:52:21.723Z,20.20
2022-08-23T22:54:48.048Z,20.20
2022-08-23T22:57:14.305Z,20.20
2022-08-23T22:59:41.091Z,20.20
2022-08-23T23:02:08.028Z,20.30
2022-08-23T23:04:34.425Z,20.30
2022-08-23T23:07:01.063Z,20.30
2022-08-23T23:09:27.332Z,20.30
2022-08-23T23:11:53.816Z,20.30
2022-08-23T23:14:20.334Z,20.30
2022-08-23T23:16:48.549Z,20.30
2022-08-23T23:19:34.992Z,20.30
2022-08-23T23:22:01.343Z,20.30
2022-08-23T23:24:32.684Z,20.30
2022-08-23T23:26:59.190Z,20.30
2022-08-23T23:29:26.497Z,20.30
2022-08-23T23:31:52.871Z,20.30
2022-08-23T23:34:19.130Z,20.30
2022-08-23T23:36:45.351Z,20.30
2022-08-23T23:39:11.834Z,20.30
2022-08-23T23:41:38.144Z,20.30
2022-08-23T23:44:04.523Z,20.30
2022-08-23T23:46:30.850Z,20.30
2022-08-23T23:48:57.381Z,20.30
2022-08-23T23:51:26.061Z,20.30
2022-08-23T23:53:52.457Z,20.30
2022-08-23T23:56:19.946Z,20.40
2022-08-23T23:58:46.383Z,20.40
